createdAt,value
2024-03-11T00:03:34.482Z,10.61
2024-03-11T00:07:10.659Z,10.61
2024-03-11T00:10:49.652Z,10.64
2024-03-11T00:14:30.460Z,10.63
2024-03-11T00:18:04.157Z,10.65
2024-03-11T00:21:43.558Z,10.65
2024-03-11T00:25:20.641Z,10.66
2024-03-11T00:28:57.259Z,10.67
2024-03-11T00:32:53.707Z,10.70
2024-03-11T00:36:12.246Z,10.68
2024-03-11T00:39:49.057Z,10.64
2024-03-11T00:43:30.149Z,10.64
2024-03-11T00:47:08.022Z,10.64
2024-03-11T00:50:45.365Z,10.66
2024-03-11T00:54:23.461Z,10.67
2024-03-11T00:58:02.383Z,10.69
2024-03-11T01:01:37.364Z,10.71
2024-03-11T01:05:19.024Z,10.73
2024-03-11T01:08:56.591Z,10.76
2024-03-11T01:12:31.979Z,10.78
2024-03-11T01:16:13.894Z,10.79
2024-03-11T01:19:51.133Z,10.79
2024-03-11T01:23:30.652Z,10.80
2024-03-11T01:27:11.782Z,10.81
2024-03-11T01:30:44.837Z,10.82
2024-03-11T01:34:24.007Z,10.82
2024-03-11T01:37:59.375Z,10.80
2024-03-11T01:41:38.309Z,10.79
2024-03-11T01:45:15.439Z,10.75
2024-03-11T01:48:50.670Z,10.69
2024-03-11T01:53:03.900Z,10.65
2024-03-11T01:56:09.451Z,10.58
2024-03-11T01:59:47.751Z,10.55
2024-03-11T02:03:24.748Z,10.45
2024-03-11T02:07:04.823Z,10.43
2024-03-11T02:10:41.066Z,10.39
2024-03-11T02:14:17.991Z,10.37
2024-03-11T02:17:56.115Z,10.36
2024-03-11T02:21:33.963Z,10.34
2024-03-11T02:25:09.206Z,10.33
2024-03-11T02:28:50.519Z,10.33
2024-03-11T02:32:28.747Z,10.31
2024-03-11T02:36:06.231Z,10.25
2024-03-11T02:39:44.153Z,10.24
2024-03-11T02:43:21.837Z,10.24
2024-03-11T02:46:58.785Z,10.25
2024-03-11T02:50:40.718Z,10.25
2024-03-11T02:54:12.366Z,10.26
2024-03-11T02:57:53.954Z,10.25
2024-03-11T03:01:29.063Z,10.24
2024-03-11T03:05:10.446Z,10.21
2024-03-11T03:08:47.703Z,10.20
2024-03-11T03:12:25.853Z,10.19
2024-03-11T03:16:12.377Z,10.17
2024-03-11T03:19:41.301Z,10.19
2024-03-11T03:23:16.852Z,10.20
2024-03-11T03:26:56.339Z,10.16
2024-03-11T03:30:39.053Z,10.13
2024-03-11T03:34:15.274Z,10.09
2024-03-11T03:37:53.413Z,10.06
2024-03-11T03:41:30.864Z,10.05
2024-03-11T03:45:10.752Z,10.05
2024-03-11T03:48:51.009Z,10.07
2024-03-11T03:52:21.573Z,10.06
2024-03-11T03:56:03.025Z,10.06
2024-03-11T03:59:40.982Z,10.09
2024-03-11T04:03:20.033Z,10.11
2024-03-11T04:06:55.795Z,10.13
2024-03-11T04:10:36.047Z,10.17
2024-03-11T04:14:12.553Z,10.19
2024-03-11T04:17:50.540Z,10.22
2024-03-11T04:21:27.175Z,10.23
2024-03-11T04:25:06.720Z,10.23
2024-03-11T04:28:40.190Z,10.26
2024-03-11T04:32:25.523Z,10.26
2024-03-11T04:35:59.305Z,10.26
2024-03-11T04:39:34.679Z,10.27
2024-03-11T04:43:15.636Z,10.25
2024-03-11T04:46:51.545Z,10.27
2024-03-11T04:50:41.971Z,10.25
2024-03-11T04:54:10.055Z,10.26
2024-03-11T04:58:10.062Z,10.23
2024-03-11T05:01:28.832Z,10.22
2024-03-11T05:05:11.562Z,10.16
2024-03-11T05:08:44.772Z,10.13
2024-03-11T05:12:25.988Z,10.09
2024-03-11T05:16:05.071Z,10.07
2024-03-11T05:19:39.101Z,10.04
2024-03-11T05:23:23.893Z,10.00
2024-03-11T05:26:56.162Z,9.95
2024-03-11T05:30:35.530Z,9.93
2024-03-11T05:34:22.849Z,9.90
2024-03-11T05:37:53.464Z,9.88
2024-03-11T05:41:32.632Z,9.88
2024-03-11T05:45:18.459Z,9.89
2024-03-11T05:49:06.716Z,9.91
2024-03-11T05:52:30.252Z,9.90
2024-03-11T05:56:10.219Z,9.90
2024-03-11T05:59:43.013Z,9.90
2024-03-11T06:03:24.149Z,9.89
2024-03-11T06:07:02.030Z,9.93
2024-03-11T06:21:09.092Z,10.21
2024-03-11T06:24:07.273Z,10.40
2024-03-11T06:27:37.672Z,10.46
2024-03-11T06:31:12.719Z,10.51
2024-03-11T06:34:48.644Z,10.53
2024-03-11T06:38:49.314Z,10.60
2024-03-11T06:42:03.099Z,10.65
2024-03-11T06:46:09.191Z,10.80
2024-03-11T06:49:24.256Z,10.90
2024-03-11T06:53:12.060Z,11.00
2024-03-11T06:56:38.538Z,11.10
2024-03-11T07:00:32.422Z,11.22
2024-03-11T07:04:02.667Z,11.34
2024-03-11T07:07:35.560Z,11.49
2024-03-11T07:11:15.680Z,11.63
2024-03-11T07:15:04.429Z,11.76
2024-03-11T07:18:55.418Z,11.89
2024-03-11T07:22:08.038Z,11.93
2024-03-11T07:25:44.998Z,11.96
2024-03-11T07:29:24.384Z,12.09
2024-03-11T07:33:22.162Z,12.18
2024-03-11T07:37:05.953Z,12.28
2024-03-11T07:40:40.140Z,12.40
2024-03-11T07:44:20.328Z,12.50
2024-03-11T07:48:14.483Z,12.64
2024-03-11T07:51:51.361Z,12.85
2024-03-11T07:55:15.033Z,13.10
2024-03-11T07:59:08.559Z,13.30
2024-03-11T08:02:51.421Z,13.49
2024-03-11T08:06:13.054Z,13.67
2024-03-11T08:09:47.600Z,13.84
2024-03-11T08:13:42.691Z,13.99
2024-03-11T08:17:07.871Z,14.14
2024-03-11T08:20:46.417Z,14.30
2024-03-11T08:24:25.790Z,14.41
2024-03-11T08:28:00.392Z,14.59
2024-03-11T08:31:38.145Z,14.74
2024-03-11T08:35:22.718Z,14.85
2024-03-11T08:38:55.542Z,14.96
2024-03-11T08:42:33.141Z,15.11
2024-03-11T08:46:06.761Z,15.27
2024-03-11T08:50:00.751Z,15.44
2024-03-11T08:53:24.677Z,15.56
2024-03-11T08:57:05.779Z,15.64
2024-03-11T09:00:47.280Z,15.78
2024-03-11T09:04:28.216Z,15.85
2024-03-11T09:08:11.646Z,15.84
2024-03-11T09:11:59.750Z,15.97
2024-03-11T09:15:32.342Z,16.33
2024-03-11T09:19:11.488Z,16.72
2024-03-11T09:22:55.126Z,16.95
2024-03-11T09:26:25.072Z,17.20
2024-03-11T09:30:29.594Z,17.42
2024-03-11T09:33:45.226Z,17.56
2024-03-11T09:37:31.855Z,17.53
2024-03-11T09:41:08.795Z,17.66
2024-03-11T09:55:16.445Z,18.23
2024-03-11T09:58:13.245Z,18.41
2024-03-11T10:02:05.777Z,18.25
2024-03-11T10:16:25.923Z,18.51
2024-03-11T10:29:58.032Z,18.98
2024-03-11T10:43:25.614Z,19.34
2024-03-11T10:56:56.907Z,19.53
2024-03-11T11:10:08.375Z,19.49
2024-03-11T11:23:36.823Z,19.46
2024-03-11T11:26:42.615Z,19.45
2024-03-11T11:30:15.543Z,19.51
2024-03-11T11:33:59.154Z,19.64
2024-03-11T11:47:47.103Z,20.25
2024-03-11T11:50:32.667Z,20.56
2024-03-11T11:54:36.470Z,20.34
2024-03-11T11:58:19.984Z,20.18
2024-03-11T12:01:55.153Z,20.25
2024-03-11T12:05:36.880Z,20.24
2024-03-11T12:09:17.375Z,20.26
2024-03-11T12:12:59.999Z,20.11
2024-03-11T12:16:34.600Z,19.78
2024-03-11T12:20:21.876Z,19.58
2024-03-11T12:24:11.462Z,19.26
2024-03-11T12:28:02.631Z,18.60
2024-03-11T12:31:35.720Z,18.13
2024-03-11T12:35:06.856Z,17.78
2024-03-11T12:38:49.500Z,17.52
2024-03-11T12:42:29.566Z,17.40
2024-03-11T12:46:33.294Z,17.13
2024-03-11T12:49:54.630Z,16.98
2024-03-11T12:53:36.888Z,16.97
2024-03-11T12:57:13.841Z,16.91
2024-03-11T13:01:11.852Z,16.85
2024-03-11T13:04:34.701Z,16.83
2024-03-11T13:08:15.519Z,16.86
2024-03-11T13:12:04.861Z,16.94
2024-03-11T13:15:36.445Z,16.95
2024-03-11T13:19:15.013Z,16.88
2024-03-11T13:22:52.411Z,16.98
2024-03-11T13:26:30.177Z,16.94
2024-03-11T13:30:14.763Z,16.91
2024-03-11T13:33:56.843Z,16.86
2024-03-11T13:37:20.780Z,16.80
2024-03-11T13:41:00.269Z,16.81
2024-03-11T13:44:44.407Z,16.80
2024-03-11T13:48:22.040Z,16.72
2024-03-11T13:52:06.527Z,16.74
2024-03-11T14:06:09.503Z,16.92
2024-03-11T14:08:57.336Z,16.94
2024-03-11T14:12:56.837Z,16.90
2024-03-11T14:16:16.366Z,16.70
2024-03-11T14:19:54.198Z,16.54
2024-03-11T14:34:27.364Z,16.57
2024-03-11T14:47:40.386Z,16.39
2024-03-11T15:01:16.227Z,16.07
2024-03-11T15:04:05.228Z,15.82
2024-03-11T15:07:50.937Z,15.75
2024-03-11T15:11:35.060Z,15.52
2024-03-11T15:15:27.269Z,15.39
2024-03-11T15:19:07.677Z,15.28
2024-03-11T15:23:08.852Z,15.24
2024-03-11T15:26:24.765Z,15.18
2024-03-11T15:30:14.545Z,15.11
2024-03-11T15:33:42.908Z,15.02
2024-03-11T15:37:26.262Z,14.96
2024-03-11T15:41:15.744Z,14.87
2024-03-11T15:44:42.928Z,14.79
2024-03-11T15:48:35.891Z,14.76
2024-03-11T16:02:42.314Z,14.89
2024-03-11T16:05:55.986Z,14.92
2024-03-11T16:09:12.247Z,14.85
2024-03-11T16:12:56.850Z,14.74
2024-03-11T16:16:46.458Z,14.63
2024-03-11T16:20:34.813Z,14.51
2024-03-11T16:23:51.242Z,14.36
2024-03-11T16:27:25.833Z,14.23
2024-03-11T16:31:14.646Z,14.12
2024-03-11T16:34:58.125Z,14.03
2024-03-11T16:38:19.699Z,13.92
2024-03-11T16:42:07.372Z,13.80
2024-03-11T16:45:43.895Z,13.72
2024-03-11T16:49:10.812Z,13.67
2024-03-11T16:52:56.567Z,13.57
2024-03-11T16:56:31.104Z,13.50
2024-03-11T17:00:22.028Z,13.45
2024-03-11T17:03:51.250Z,13.39
2024-03-11T17:07:49.709Z,13.34
2024-03-11T17:11:16.723Z,13.21
2024-03-11T17:14:50.082Z,13.12
2024-03-11T17:18:26.581Z,13.07
2024-03-11T17:22:08.455Z,12.97
2024-03-11T17:25:40.948Z,12.84
2024-03-11T17:29:18.772Z,12.81
2024-03-11T17:33:09.235Z,12.72
2024-03-11T17:36:38.092Z,12.65
2024-03-11T17:40:24.882Z,12.59
2024-03-11T17:43:51.326Z,12.53
2024-03-11T17:47:25.185Z,12.48
2024-03-11T18:01:52.543Z,12.58
2024-03-11T18:04:43.765Z,12.59
2024-03-11T18:08:21.797Z,12.54
2024-03-11T18:12:11.778Z,12.50
2024-03-11T18:15:40.632Z,12.49
2024-03-11T18:19:16.681Z,12.41
2024-03-11T18:22:56.424Z,12.41
2024-03-11T18:26:28.829Z,12.40
2024-03-11T18:30:18.760Z,12.39
2024-03-11T18:33:46.829Z,12.36
2024-03-11T18:37:38.683Z,12.29
2024-03-11T18:40:58.186Z,12.24
2024-03-11T18:44:44.309Z,12.21
2024-03-11T18:48:20.194Z,12.11
2024-03-11T19:02:59.592Z,12.10
2024-03-11T19:05:44.486Z,11.98
2024-03-11T19:09:25.547Z,11.87
2024-03-11T19:23:27.212Z,11.90
2024-03-11T19:26:17.435Z,11.88
2024-03-11T19:29:58.300Z,11.80
2024-03-11T19:33:33.846Z,11.71
2024-03-11T19:37:27.155Z,11.64
2024-03-11T19:41:11.149Z,11.57
2024-03-11T19:44:54.265Z,11.52
2024-03-11T19:48:44.450Z,11.50
2024-03-11T19:52:31.090Z,11.48
2024-03-11T20:01:46.023Z,11.41
2024-03-11T20:06:10.043Z,11.43
2024-03-11T20:09:33.203Z,11.45
2024-03-11T20:12:56.658Z,11.44
2024-03-11T20:17:30.881Z,11.43
2024-03-11T20:21:35.148Z,11.41
2024-03-11T20:26:02.330Z,11.38
2024-03-11T20:29:23.221Z,11.36
2024-03-11T20:32:50.356Z,11.33
2024-03-11T20:36:31.845Z,11.29
2024-03-11T20:40:12.120Z,11.25
2024-03-11T20:43:47.826Z,11.23
2024-03-11T20:47:23.080Z,11.21
2024-03-11T20:51:05.807Z,11.19
2024-03-11T20:54:42.447Z,11.17
2024-03-11T20:58:23.410Z,11.15
2024-03-11T21:02:05.864Z,11.16
2024-03-11T21:05:44.429Z,11.13
2024-03-11T21:09:20.311Z,11.12
2024-03-11T21:12:59.974Z,11.11
2024-03-11T21:16:36.239Z,11.13
2024-03-11T21:20:39.645Z,11.18
2024-03-11T21:24:39.439Z,11.20
2024-03-11T21:27:29.063Z,11.19
2024-03-11T21:31:06.850Z,11.20
2024-03-11T21:34:44.839Z,11.19
2024-03-11T21:38:27.743Z,11.19
2024-03-11T21:41:59.548Z,11.20
2024-03-11T21:45:37.071Z,11.22
2024-03-11T21:49:14.819Z,11.21
2024-03-11T21:52:52.349Z,11.21
2024-03-11T21:56:30.151Z,11.22
2024-03-11T22:00:16.468Z,11.19
2024-03-11T22:03:45.658Z,11.15
2024-03-11T22:07:29.047Z,11.07
2024-03-11T22:11:01.225Z,11.00
2024-03-11T22:14:38.730Z,10.94
2024-03-11T22:18:16.514Z,10.88
2024-03-11T22:21:56.511Z,10.84
2024-03-11T22:25:30.925Z,10.82
2024-03-11T22:29:13.063Z,10.78
2024-03-11T22:32:47.952Z,10.76
2024-03-11T22:36:29.148Z,10.72
2024-03-11T22:40:11.297Z,10.67
2024-03-11T22:43:48.590Z,10.67
2024-03-11T22:47:22.247Z,10.64
2024-03-11T22:50:58.139Z,10.61
2024-03-11T22:54:37.209Z,10.62
2024-03-11T23:06:21.823Z,10.63
2024-03-11T23:09:58.466Z,10.61
2024-03-11T23:13:40.766Z,10.60
2024-03-11T23:17:16.424Z,10.57
2024-03-11T23:20:50.343Z,10.53
2024-03-11T23:24:34.290Z,10.51
2024-03-11T23:28:08.536Z,10.46
2024-03-11T23:31:50.968Z,10.45
2024-03-11T23:35:30.392Z,10.43
2024-03-11T23:39:05.166Z,10.44
2024-03-11T23:42:43.090Z,10.39
2024-03-11T23:46:20.636Z,10.36
2024-03-11T23:49:58.185Z,10.35
2024-03-11T23:53:36.086Z,10.34
2024-03-11T23:57:13.962Z,10.30
